METAR AND TAF INFORMATION
METAR FOR LDZD
ADDS - METARS form results

(0259 UTC 22 August 2019)
Data provider http://aviationweather.gov/metar/data/
 
METAR text: LDZD 220230Z 07010KT 350V120 CAVOK 26/15 Q1018
Conditions at: LDZD (ZADAR/ZEMUNIK , HR) observed 0230 UTC 22 August 2019
Temperature: 26.0°C (79°F)
Dewpoint: 15.0°C (59°F) [RH = 51%]
Pressure (altimeter): 30.06 inches Hg (1018.0 mb)
Winds: from the ENE (70 degrees) at 12 MPH (10 knots; 5.1 m/s)
Visibility: 6 or more miles (10+ km)
Ceiling: ceiling and visibility are OK
Clouds: unknown
Weather: no significant weather observed at this time

METAR text: LDZD 220200Z 08011KT 020V130 CAVOK 26/15 Q1018
Conditions at: LDZD (ZADAR/ZEMUNIK , HR) observed 0200 UTC 22 August 2019
Temperature: 26.0°C (79°F)
Dewpoint: 15.0°C (59°F) [RH = 51%]
Pressure (altimeter): 30.06 inches Hg (1018.0 mb)
Winds: from the E (80 degrees) at 13 MPH (11 knots; 5.7 m/s)
Visibility: 6 or more miles (10+ km)
Ceiling: ceiling and visibility are OK
Clouds: unknown
Weather: no significant weather observed at this time

Forecast for: LDZD (ZADAR/ZEMUNIK , HR)
Text: TAF LDZD 212325Z 2200/2300 07009KT CAVOK TX35/2214Z TN21/2204Z
Forecast period: 0000 UTC 22 August 2019 to 0000 UTC 23 August 2019
Forecast type: FROM: standard forecast or significant change
Winds: from the ENE (70 degrees) at 10 MPH (9 knots; 4.6 m/s)
Visibility: 6 or more miles 10+ km)
Ceiling: unknown
Clouds: missing
Weather: no significant weather forecast for this period
Text: TEMPO 2210/2214 VRB02KT
Forecast period: 1000 to 1400 UTC 22 August 2019
Forecast type: TEMPORARY: The following changes expected for less than half the time period
Winds: variable direction winds at 2 MPH (2 knots; 1.0 m/s)
Visibility: missing
Ceiling: unknown
Clouds: missing
Weather: no significant weather forecast for this period

 AIRPORT MAP

 RUNWAY INFORMATION
Runway 04 Runway length 6561 ft Runway width 147 ft
Runway elevation 289 ft Runway displaced threshold 0 ft Runway heading 42
Runway 22 Runway length 6561 ft Runway width 147 ft
Runway elevation 272 ft Runway displaced threshold 0 ft Runway heading 222
Runway 14 Runway length 8202 ft Runway width 147 ft
Runway elevation 243 ft Runway displaced threshold 0 ft Runway heading 136
Runway 32 Runway length 8202 ft Runway width 147 ft
Runway elevation 259 ft Runway displaced threshold 0 ft Runway heading 316

 AIRPORT FREQUENCIES
Type APP Name APP Frequency 118.6 MHZ
Type TWR Name TWR Frequency 123.7 MHZ

 AIRPORT NEAR NAVIGATION AIDS
Type NDB Name Bokanjac Frequency 385 KHZ
Type NDB Name Sali Frequency 421 KHZ
Type VOR-DME Name Zadar Frequency 108600 KHZ
Type NDB Name Zadar Frequency 348 KHZ
Type NDB Name Kakma Frequency 330 KHZ



Powered by Virtual Airlines Manager [v2.6.2]

Impressum | Datenschutz